Terminal Aerodrome Forecast
Issued by NWS

Home | Current Version | Previous Version | Text Only | Print | Product List | Glossary On
Versions: 1 2 3 4 5 6 7 8 9 10 11 12 13
323
FTUS44 KLZK 032320
TAFLIT
TAF
KLIT 032320Z 0400/0424 06008KT 5SM -RA BR BKN004 OVC008
     FM040200 07006KT 3SM -RA BR OVC004
     FM040600 04005KT 2SM BR VCSH OVC004
     FM041000 03004KT 1SM BR VCSH OVC007
      TEMPO 0410/0414 1/2SM -DZ FG OVC003
     FM041900 35006KT P6SM BKN008 OVC015=

USA.gov is the U.S. government's official web portal to all federal, state and local government web resources and services.